Time;durP1;ratioP1;P1;durP2;ratioP2;P2;SDS_P1;SDS_P2;PMS_P1;PMS_P2;Temp;Humidity;BMP_temperature;BMP_pressure;BME280_temperature;BME280_humidity;BME280_pressure;Samples;Min_cycle;Max_cycle;Signal;HPM_P1;HPM_P2
2021/04/15 00:01:10;;;;;;;4.05;1.73;;;6.80;46.10;;;;;;4994537;28;20031;-83
2021/04/15 00:03:36;;;;;;;1.48;1.05;;;;;;;;;;4991169;28;20046;-83
2021/04/15 00:06:11;;;;;;;1.45;1.35;;;6.80;32.10;;;;;;4991258;28;20528;-83
2021/04/15 00:08:37;;;;;;;1.67;1.10;;;;;;;;;;4987722;28;20500;-83
2021/04/15 00:11:03;;;;;;;3.55;1.60;;;6.50;32.70;;;;;;4988821;28;20026;-83
2021/04/15 00:13:35;;;;;;;3.08;2.20;;;6.40;32.60;;;;;;4984705;28;20035;-83
2021/04/15 00:16:02;;;;;;;1.85;1.02;;;6.00;33.00;;;;;;4979558;28;20503;-83
2021/04/15 00:18:28;;;;;;;2.10;1.40;;;;;;;;;;4976385;28;20027;-83
2021/04/15 00:20:54;;;;;;;2.05;1.73;;;6.30;33.10;;;;;;4975379;28;20037;-83
2021/04/15 00:23:20;;;;;;;2.42;1.77;;;6.30;33.40;;;;;;4979775;28;20468;-83
2021/04/15 00:25:46;;;;;;;4.47;2.17;;;;;;;;;;4980469;28;20057;-83
2021/04/15 00:28:12;;;;;;;2.28;1.73;;;;;;;;;;4979502;28;20030;-83
2021/04/15 00:30:38;;;;;;;7.38;1.58;;;;;;;;;;4978948;28;20041;-83
2021/04/15 00:33:07;;;;;;;2.03;1.20;;;6.40;33.70;;;;;;4990926;28;20047;-83
2021/04/15 00:35:36;;;;;;;4.05;1.50;;;6.10;33.90;;;;;;4987391;28;20038;-83
2021/04/15 00:38:03;;;;;;;1.40;0.90;;;6.00;33.80;;;;;;4986775;28;20026;-83
2021/04/15 00:40:31;;;;;;;2.67;2.00;;;5.90;34.20;;;;;;4990484;28;20057;-82
2021/04/15 00:42:57;;;;;;;10.30;2.35;;;;;;;;;;4986109;28;20045;-84
2021/04/15 00:45:30;;;;;;;6.55;2.10;;;6.40;33.50;;;;;;4990097;28;20023;-83
2021/04/15 00:48:05;;;;;;;2.50;1.65;;;6.20;33.80;;;;;;4974724;28;20050;-82
2021/04/15 00:50:39;;;;;;;2.08;1.33;;;6.00;33.80;;;;;;4990222;28;20037;-82
2021/04/15 00:53:11;;;;;;;1.60;1.30;;;5.80;34.10;;;;;;4979465;28;20050;-82
2021/04/15 00:55:37;;;;;;;1.15;1.05;;;;;;;;;;4981507;28;20100;-83
2021/04/15 00:58:04;;;;;;;2.67;2.05;;;5.80;34.40;;;;;;4987990;28;20033;-83
2021/04/15 01:00:31;;;;;;;4.00;1.30;;;5.70;34.70;;;;;;4976721;28;20100;-82
2021/04/15 01:02:58;;;;;;;2.97;1.55;;;5.80;34.80;;;;;;4975129;28;20282;-84
2021/04/15 01:05:34;;;;;;;2.15;1.45;;;6.10;34.60;;;;;;4978251;28;20126;-83
2021/04/15 01:08:00;;;;;;;2.03;1.40;;;;;;;;;;4984491;28;20026;-83
2021/04/15 01:10:29;;;;;;;1.65;1.40;;;5.90;34.50;;;;;;4986034;28;20034;-83
2021/04/15 01:13:13;;;;;;;6.22;2.17;;;5.80;34.80;;;;;;4985399;28;20114;-83
2021/04/15 01:16:08;;;;;;;2.45;1.83;;;5.90;35.00;;;;;;4989992;28;20431;-83
2021/04/15 01:18:37;;;;;;;1.42;1.08;;;;;;;;;;4976093;28;20074;-83
2021/04/15 01:21:39;;;;;;;2.20;1.45;;;6.20;57.60;;;;;;4988372;28;20435;-83
2021/04/15 01:24:05;;;;;;;2.50;1.42;;;;;;;;;;4973352;28;20031;-84
2021/04/15 01:26:34;;;;;;;2.10;1.75;;;;;;;;;;4986849;28;20026;-83
2021/04/15 01:29:00;;;;;;;1.38;1.10;;;;;;;;;;4979223;28;20416;-83
2021/04/15 01:32:10;;;;;;;4.38;1.92;;;5.50;35.30;;;;;;4978480;28;20031;-83
2021/04/15 01:34:44;;;;;;;2.03;1.85;;;5.60;35.90;;;;;;4984407;28;20038;-84
2021/04/15 01:37:22;;;;;;;2.42;1.65;;;5.50;36.00;;;;;;4985739;28;20582;-84
2021/04/15 01:39:52;;;;;;;;;;;5.40;35.90;;;;;;4978781;28;20034;-83
2021/04/15 01:42:27;;;;;;;3.17;1.20;;;5.60;60.20;;;;;;4975172;28;19976;-82
2021/04/15 01:44:58;;;;;;;2.22;1.70;;;5.30;59.90;;;;;;4974273;28;20026;-83
2021/04/15 01:47:32;;;;;;;1.98;1.70;;;5.20;36.00;;;;;;4986345;28;20069;-83
2021/04/15 01:50:13;;;;;;;1.65;1.55;;;5.10;36.60;;;;;;4979742;28;20034;-83
2021/04/15 01:52:41;;;;;;;2.45;1.58;;;5.00;36.20;;;;;;4981250;28;20050;-83
2021/04/15 01:55:14;;;;;;;2.80;1.98;;;4.80;36.90;;;;;;4986792;28;20392;-83
2021/04/15 01:58:06;;;;;;;2.13;1.77;;;4.70;53.30;;;;;;4988834;28;20038;-83
2021/04/15 02:00:34;;;;;;;1.35;1.20;;;4.90;37.20;;;;;;4976018;28;20042;-83
2021/04/15 02:03:09;;;;;;;4.25;1.70;;;4.90;61.40;;;;;;4987753;28;20097;-83
2021/04/15 02:05:38;;;;;;;3.28;1.75;;;4.90;61.10;;;;;;4976243;28;20118;-83
2021/04/15 02:08:16;;;;;;;2.28;1.65;;;4.80;37.30;;;;;;4984232;28;20495;-83
2021/04/15 02:10:50;;;;;;;3.05;1.55;;;4.90;37.10;;;;;;4996431;28;20504;-83
2021/04/15 02:13:17;;;;;;;4.63;1.60;;;5.00;36.60;;;;;;4977978;28;20037;-83
2021/04/15 02:15:53;;;;;;;2.72;1.48;;;5.00;36.20;;;;;;4977852;28;20112;-83
2021/04/15 02:18:24;;;;;;;2.78;1.80;;;5.00;36.40;;;;;;4974084;28;20038;-83
2021/04/15 02:20:53;;;;;;;3.63;1.98;;;4.80;59.70;;;;;;4986567;28;20038;-83
2021/04/15 02:23:40;;;;;;;10.98;2.05;;;4.50;59.80;;;;;;4977128;28;20027;-82
2021/04/15 02:26:11;;;;;;;6.13;2.53;;;4.70;37.20;;;;;;4978120;28;20046;-83
2021/04/15 02:28:46;;;;;;;4.32;2.22;;;4.80;37.00;;;;;;4980692;28;20045;-83
2021/04/15 02:31:24;;;;;;;3.38;1.88;;;4.90;36.70;;;;;;4984282;28;20105;-83
2021/04/15 02:33:52;;;;;;;;;;;4.90;36.80;;;;;;4985302;28;20546;-83
2021/04/15 02:36:20;;;;;;;2.53;1.90;;;;;;;;;;4974758;28;19972;-83
2021/04/15 02:39:42;;;;;;;4.20;1.90;;;4.90;59.00;;;;;;4974101;28;20027;-83
2021/04/15 02:42:11;;;;;;;2.28;1.67;;;4.60;60.70;;;;;;4952459;28;20170;-84
2021/04/15 02:44:53;;;;;;;3.40;2.83;;;4.60;49.90;;;;;;4957139;28;20046;-82
2021/04/15 02:47:37;;;;;;;1.85;1.63;;;4.40;37.50;;;;;;4959652;28;20031;-83
2021/04/15 02:50:06;;;;;;;1.55;1.25;;;4.50;38.00;;;;;;4956040;28;20105;-83
2021/04/15 02:52:37;;;;;;;1.77;1.40;;;5.00;44.70;;;;;;4959772;28;20166;-83
2021/04/15 02:55:07;;;;;;;3.55;2.33;;;4.60;36.50;;;;;;4959955;28;20034;-82
2021/04/15 02:57:43;;;;;;;2.50;2.00;;;4.60;37.00;;;;;;4942592;28;20603;-84
2021/04/15 03:00:23;;;;;;;1.88;1.40;;;4.50;36.90;;;;;;4954590;28;20042;-83
2021/04/15 03:03:03;;;;;;;3.33;2.08;;;4.40;38.00;;;;;;4967828;28;20547;-83
2021/04/15 03:05:35;;;;;;;3.90;1.92;;;4.50;37.80;;;;;;4956859;28;20570;-83
2021/04/15 03:08:02;;;;;;;1.73;1.25;;;4.60;37.40;;;;;;4959590;28;20046;-83
2021/04/15 03:10:34;;;;;;;2.53;1.27;;;4.40;37.80;;;;;;4959485;28;20023;-83
2021/04/15 03:13:19;;;;;;;3.78;1.38;;;4.20;61.60;;;;;;4957801;28;20122;-83
2021/04/15 03:15:49;;;;;;;1.60;1.40;;;4.10;45.00;;;;;;4973142;28;20038;-84
2021/04/15 03:18:29;;;;;;;1.90;1.30;;;4.20;38.40;;;;;;4971905;28;20110;-83
2021/04/15 03:21:06;;;;;;;2.45;1.70;;;4.10;58.00;;;;;;4971102;28;20134;-83
2021/04/15 03:24:03;;;;;;;1.30;1.20;;;4.10;49.00;;;;;;4972137;28;20046;-83
2021/04/15 03:26:35;;;;;;;5.18;3.35;;;4.10;49.20;;;;;;4973545;28;20035;-84
2021/04/15 03:29:14;;;;;;;7.13;2.13;;;4.00;38.30;;;;;;4961359;28;20042;-83
2021/04/15 03:31:44;;;;;;;2.40;2.20;;;3.20;38.30;;;;;;4968418;28;20050;-83
2021/04/15 03:34:24;;;;;;;2.92;1.90;;;4.00;38.80;;;;;;4969290;28;20033;-84
2021/04/15 03:36:52;;;;;;;3.90;1.45;;;4.00;38.50;;;;;;4961930;28;20043;-83
2021/04/15 03:39:28;;;;;;;3.83;2.20;;;3.90;38.80;;;;;;4972684;28;20030;-83
2021/04/15 03:41:57;;;;;;;5.32;2.38;;;4.10;38.60;;;;;;4956629;28;20110;-83
2021/04/15 03:44:44;;;;;;;1.95;1.42;;;4.00;38.40;;;;;;4969106;28;20059;-84
2021/04/15 03:47:18;;;;;;;3.97;1.67;;;3.70;57.80;;;;;;4968849;28;20027;-83
2021/04/15 03:50:01;;;;;;;1.83;1.70;;;4.20;62.10;;;;;;4979865;28;20047;-83
2021/04/15 03:52:50;;;;;;;2.78;1.30;;;3.90;38.20;;;;;;4962600;28;20081;-83
2021/04/15 03:55:31;;;;;;;1.52;1.38;;;4.30;41.10;;;;;;4993826;28;20034;-83
2021/04/15 03:58:08;;;;;;;4.85;2.80;;;4.50;38.90;;;;;;4987349;28;20110;-84
2021/04/15 04:00:37;;;;;;;2.05;1.65;;;3.90;38.50;;;;;;4991526;28;20022;-83
2021/04/15 04:03:13;;;;;;;3.15;1.98;;;3.90;38.30;;;;;;4990439;28;20480;-83
2021/04/15 04:05:48;;;;;;;10.20;1.95;;;3.70;38.90;;;;;;4988435;28;20061;-83
2021/04/15 04:08:23;;;;;;;3.65;1.80;;;3.80;38.90;;;;;;4979600;28;20035;-83
2021/04/15 04:10:54;;;;;;;3.83;1.75;;;3.60;39.20;;;;;;4980214;28;20031;-83
2021/04/15 04:13:32;;;;;;;6.35;2.03;;;3.80;39.00;;;;;;4979328;28;20065;-83
2021/04/15 04:16:22;;;;;;;2.83;2.33;;;3.90;38.30;;;;;;4989654;28;20089;-83
2021/04/15 04:19:17;;;;;;;7.18;1.88;;;3.80;38.60;;;;;;4975430;28;20027;-83
2021/04/15 04:21:55;;;;;;;2.75;1.95;;;3.90;41.10;;;;;;4984864;28;20043;-83
2021/04/15 04:24:41;;;;;;;2.78;2.05;;;3.80;38.10;;;;;;4988597;28;20577;-83
2021/04/15 04:27:33;;;;;;;4.47;2.00;;;3.60;38.30;;;;;;4892179;29;20581;-83
2021/04/15 04:30:08;;;;;;;1.90;1.73;;;3.70;62.20;;;;;;4890876;29;20056;-84
2021/04/15 04:32:34;;;;;;;1.77;1.65;;;;;;;;;;4893393;29;20037;-83
2021/04/15 04:35:02;;;;;;;4.90;1.60;;;3.80;38.30;;;;;;4890729;29;20065;-84
2021/04/15 04:37:36;;;;;;;5.90;2.63;;;3.90;38.50;;;;;;4892254;29;20521;-83
2021/04/15 04:40:05;;;;;;;3.17;2.30;;;3.80;38.00;;;;;;4892426;29;20525;-83
2021/04/15 04:42:50;;;;;;;4.13;2.88;;;3.70;58.40;;;;;;4892635;29;20131;-83
2021/04/15 04:45:17;;;;;;;3.42;2.40;;;3.20;39.30;;;;;;4877403;29;20044;-83
2021/04/15 04:47:43;;;;;;;1.08;0.93;;;;;;;;;;4893654;29;20569;-84
2021/04/15 04:50:23;;;;;;;5.20;2.30;;;3.40;39.70;;;;;;4892073;29;20068;-83
2021/04/15 04:53:01;;;;;;;4.68;2.42;;;3.30;39.40;;;;;;4882264;29;20056;-83
2021/04/15 04:55:26;;;;;;;;;;;3.40;39.50;;;;;;4892448;29;20065;-83
2021/04/15 04:57:52;;;;;;;2.00;1.48;;;;;;;;;;4897087;29;19919;-83
2021/04/15 05:00:21;;;;;;;3.33;2.45;;;2.80;62.90;;;;;;4910932;29;20039;-83
2021/04/15 05:02:56;;;;;;;4.50;1.98;;;3.30;39.40;;;;;;4892535;29;20119;-83
2021/04/15 05:05:28;;;;;;;2.00;1.40;;;3.20;63.50;;;;;;4986065;28;20038;-83
2021/04/15 05:07:59;;;;;;;3.33;2.22;;;3.40;43.50;;;;;;4985700;28;20030;-83
2021/04/15 05:10:27;;;;;;;6.07;2.60;;;3.40;39.50;;;;;;4984850;28;20098;-84
2021/04/15 05:12:59;;;;;;;;;;;3.40;39.40;;;;;;4975757;28;20035;-83
2021/04/15 05:15:26;;;;;;;1.95;1.15;;;;;;;;;;4988499;28;19944;-83
2021/04/15 05:17:52;;;;;;;4.18;2.40;;;;;;;;;;4987331;28;20023;-83
2021/04/15 05:20:20;;;;;;;2.65;2.00;;;3.40;39.20;;;;;;4977835;28;20081;-83
2021/04/15 05:23:18;;;;;;;4.20;2.67;;;3.50;62.60;;;;;;4982611;28;20030;-83
2021/04/15 05:26:06;;;;;;;2.13;1.90;;;3.50;62.70;;;;;;4977640;28;20113;-84
2021/04/15 05:28:35;;;;;;;3.95;1.60;;;8.20;42.70;;;;;;4979480;28;20045;-82
2021/04/15 05:31:08;;;;;;;2.28;1.33;;;3.60;39.60;;;;;;4981103;28;20045;-83
2021/04/15 05:33:35;;;;;;;2.42;2.15;;;3.50;39.60;;;;;;4975615;28;20089;-81
2021/04/15 05:36:04;;;;;;;4.50;2.35;;;;;;;;;;4975442;28;20027;-83
2021/04/15 05:38:46;;;;;;;2.55;2.08;;;3.70;39.70;;;;;;4985377;28;20097;-82
2021/04/15 05:41:37;;;;;;;2.28;1.83;;;3.60;40.10;;;;;;4983274;28;20033;-81
2021/04/15 05:44:10;;;;;;;4.20;1.25;;;4.40;52.70;;;;;;4980813;28;20030;-82
2021/04/15 05:46:45;;;;;;;3.42;1.95;;;4.10;39.20;;;;;;4984640;28;20030;-82
2021/04/15 05:49:21;;;;;;;3.75;2.22;;;3.90;39.20;;;;;;4983710;28;20031;-83
2021/04/15 05:51:59;;;;;;;3.65;2.85;;;3.80;59.00;;;;;;4987839;28;20081;-81
2021/04/15 05:54:28;;;;;;;8.07;3.35;;;4.20;62.90;;;;;;4973385;28;20108;-83
2021/04/15 05:57:09;;;;;;;6.20;3.17;;;3.90;39.00;;;;;;4980475;28;20038;-84
2021/04/15 05:59:38;;;;;;;3.95;2.00;;;3.90;45.90;;;;;;4986761;28;20026;-83
2021/04/15 06:02:30;;;;;;;9.52;3.83;;;4.10;39.40;;;;;;4988380;28;20025;-83
2021/04/15 06:05:13;;;;;;;4.65;2.78;;;4.00;49.40;;;;;;4979253;28;20066;-83
2021/04/15 06:07:41;;;;;;;2.63;2.33;;;4.70;58.40;;;;;;4979597;28;20109;-84
2021/04/15 06:10:09;;;;;;;4.55;2.58;;;5.10;37.70;;;;;;4985388;28;20522;-83
2021/04/15 06:12:49;;;;;;;3.55;2.83;;;4.80;45.10;;;;;;4972951;28;20109;-84
2021/04/15 06:15:20;;;;;;;4.43;2.80;;;4.80;38.60;;;;;;4972881;28;20377;-83
2021/04/15 06:18:01;;;;;;;4.05;2.78;;;4.60;52.00;;;;;;4980273;28;20078;-84
2021/04/15 06:20:43;;;;;;;5.07;3.08;;;5.30;53.30;;;;;;4974296;28;20031;-81
2021/04/15 06:23:19;;;;;;;8.63;3.15;;;5.30;38.20;;;;;;4998627;28;20030;-82
2021/04/15 06:25:47;;;;;;;5.32;3.72;;;5.50;37.10;;;;;;4980524;28;20045;-81
2021/04/15 06:28:29;;;;;;;3.15;2.17;;;5.50;36.60;;;;;;4976008;28;20045;-81
2021/04/15 06:30:57;;;;;;;4.57;2.55;;;5.30;38.50;;;;;;4984063;28;20089;-82
2021/04/15 06:33:24;;;;;;;5.68;3.20;;;;;;;;;;4988242;28;20092;-81
2021/04/15 06:35:53;;;;;;;4.85;1.80;;;5.40;62.10;;;;;;4972255;28;20057;-81
2021/04/15 06:38:47;;;;;;;5.65;2.78;;;5.00;53.30;;;;;;4984205;28;20031;-81
2021/04/15 06:41:25;;;;;;;7.03;3.22;;;5.90;36.90;;;;;;4985924;28;20085;-82
2021/04/15 06:44:13;;;;;;;4.20;3.63;;;7.40;33.40;;;;;;4980633;28;20047;-81
2021/04/15 06:46:57;;;;;;;3.53;2.15;;;8.60;31.20;;;;;;4986021;28;20038;-84
2021/04/15 06:49:51;;;;;;;5.57;2.90;;;10.00;51.60;;;;;;4985061;28;20026;-86
2021/04/15 06:52:26;;;;;;;11.27;2.92;;;10.00;29.70;;;;;;4983952;28;20119;-80
2021/04/15 06:55:07;;;;;;;4.35;2.70;;;10.30;49.60;;;;;;4985143;28;20030;-85
2021/04/15 06:57:48;;;;;;;3.40;2.72;;;10.10;49.10;;;;;;4985612;28;20093;-86
2021/04/15 07:00:31;;;;;;;8.00;3.13;;;10.40;48.80;;;;;;4983586;28;20061;-86
2021/04/15 07:03:15;;;;;;;8.25;3.65;;;10.30;34.70;;;;;;4980860;28;20088;-82
2021/04/15 07:05:41;;;;;;;8.00;2.85;;;;;;;;;;4987196;28;20031;-82
2021/04/15 07:08:35;;;;;;;6.30;3.35;;;10.00;28.00;;;;;;4984903;28;20085;-83
2021/04/15 07:11:23;;;;;;;5.72;3.05;;;9.90;29.80;;;;;;4984899;28;20050;-82
2021/04/15 07:14:07;;;;;;;;;;;10.00;29.40;;;;;;4998136;28;20034;-82
2021/04/15 07:16:33;;;;;;;4.40;3.00;;;;;;;;;;4981437;28;19968;-83
2021/04/15 07:19:36;;;;;;;14.40;4.95;;;12.00;30.60;;;;;;4977309;28;20034;-81
2021/04/15 07:22:28;;;;;;;11.52;5.00;;;12.70;26.30;;;;;;4982844;28;20035;-82
2021/04/15 07:25:11;;;;;;;6.20;4.35;;;13.30;45.70;;;;;;4945952;28;20134;-83
2021/04/15 07:27:48;;;;;;;6.88;4.35;;;13.90;25.00;;;;;;4933866;28;20031;-81
2021/04/15 07:30:30;;;;;;;7.78;3.83;;;14.40;44.40;;;;;;4948053;29;20043;-81
2021/04/15 07:33:14;;;;;;;12.05;3.50;;;14.40;45.40;;;;;;4945953;29;20031;-81
2021/04/15 07:35:53;;;;;;;6.88;3.92;;;15.40;44.20;;;;;;4943074;29;20547;-83
2021/04/15 07:38:22;;;;;;;6.65;2.78;;;16.00;27.40;;;;;;4946138;28;20027;-83
2021/04/15 07:41:14;;;;;;;4.45;3.35;;;16.60;39.40;;;;;;4945637;29;20058;-81
2021/04/15 07:43:45;;;;;;;5.07;2.78;;;17.30;22.30;;;;;;4948524;29;20035;-83
2021/04/15 07:46:12;;;;;;;5.25;3.90;;;;;;;;;;4948515;28;20089;-83
2021/04/15 07:48:41;;;;;;;6.53;3.35;;;;;;;;;;4947956;29;20074;-82
2021/04/15 07:51:34;;;;;;;6.95;3.35;;;17.40;21.80;;;;;;4947434;29;20051;-83
2021/04/15 07:54:53;;;;;;;4.70;2.72;;;17.90;40.00;;;;;;4945474;29;20036;-84
2021/04/15 07:57:53;;;;;;;4.43;2.70;;;18.30;21.90;;;;;;4889374;29;20538;-83
2021/04/15 08:00:46;;;;;;;4.90;2.80;;;18.40;20.20;;;;;;4888761;29;20032;-84
2021/04/15 08:03:33;;;;;;;5.07;3.58;;;18.70;21.30;;;;;;4928556;29;20083;-82
2021/04/15 08:06:38;;;;;;;4.82;2.13;;;18.20;20.90;;;;;;4926816;29;20201;-83
2021/04/15 08:09:48;;;;;;;7.35;3.72;;;18.50;37.70;;;;;;4929067;29;20040;-82
2021/04/15 08:12:41;;;;;;;4.20;2.42;;;17.90;20.20;;;;;;4926965;29;20055;-84
2021/04/15 08:15:31;;;;;;;5.20;2.92;;;17.60;20.80;;;;;;4944608;29;20118;-84
2021/04/15 08:17:57;;;;;;;11.48;2.97;;;;;;;;;;4928946;29;20513;-83
2021/04/15 08:20:31;;;;;;;4.63;3.17;;;18.50;19.90;;;;;;4929313;29;20032;-86
2021/04/15 08:23:06;;;;;;;6.40;2.78;;;18.10;20.40;;;;;;4928511;29;20079;-83
2021/04/15 08:25:55;;;;;;;5.25;3.42;;;18.80;20.20;;;;;;4927826;29;20119;-83
2021/04/15 08:28:36;;;;;;;7.05;3.08;;;18.70;20.30;;;;;;4927271;29;20808;-82
2021/04/15 08:31:22;;;;;;;4.88;2.60;;;18.50;25.00;;;;;;4948460;28;20508;-82
2021/04/15 08:34:05;;;;;;;6.82;3.53;;;18.70;20.60;;;;;;4988005;28;20035;-82
2021/04/15 08:37:15;;;;;;;6.88;3.72;;;18.70;19.40;;;;;;4984740;28;20054;-83
2021/04/15 08:39:50;;;;;;;8.13;4.18;;;;;;;;;;4986648;28;20030;-84
2021/04/15 08:42:25;;;;;;;5.43;3.53;;;19.50;19.00;;;;;;4970713;28;20122;-82
2021/04/15 08:45:29;;;;;;;7.10;3.30;;;19.40;18.60;;;;;;4986791;28;20030;-82
2021/04/15 08:48:15;;;;;;;9.70;4.35;;;18.50;18.80;;;;;;4948888;29;20043;-85
2021/04/15 08:50:44;;;;;;;10.73;3.60;;;;;;;;;;4949163;29;20047;-85
2021/04/15 08:53:52;;;;;;;5.28;3.83;;;18.30;19.90;;;;;;4948450;29;20554;-84
2021/04/15 08:56:23;;;;;;;5.20;2.90;;;19.30;19.00;;;;;;4948737;29;20442;-83
2021/04/15 08:59:21;;;;;;;10.02;4.07;;;19.20;19.20;;;;;;4947423;28;20070;-82
2021/04/15 09:01:57;;;;;;;15.45;3.58;;;19.70;18.40;;;;;;4943598;29;20047;-83
2021/04/15 09:04:39;;;;;;;6.50;3.25;;;19.30;18.30;;;;;;4948312;29;20044;-81
2021/04/15 09:07:20;;;;;;;4.22;2.83;;;18.80;24.00;;;;;;4948245;29;20063;-83
2021/04/15 09:09:48;;;;;;;6.10;3.63;;;;;;;;;;4948843;29;20091;-83
2021/04/15 09:12:33;;;;;;;6.95;3.28;;;18.30;36.60;;;;;;4947806;29;20027;-83
2021/04/15 09:15:29;;;;;;;7.82;3.15;;;19.60;23.00;;;;;;4948024;28;20114;-83
2021/04/15 09:18:10;;;;;;;5.47;3.22;;;19.00;18.60;;;;;;4945566;29;20416;-83
2021/04/15 09:21:14;;;;;;;6.20;3.08;;;19.90;24.60;;;;;;4949380;29;20039;-83
2021/04/15 09:23:51;;;;;;;4.05;2.70;;;19.70;18.20;;;;;;4972125;28;20046;-82
2021/04/15 09:26:33;;;;;;;3.67;3.25;;;19.70;23.30;;;;;;4984444;28;20038;-83
2021/04/15 09:29:27;;;;;;;3.80;2.72;;;19.40;26.80;;;;;;4980331;28;20034;-82
2021/04/15 09:32:02;;;;;;;5.20;2.47;;;19.50;18.80;;;;;;4983820;28;20034;-82
2021/04/15 09:35:05;;;;;;;4.50;2.58;;;19.70;17.60;;;;;;4982975;28;20126;-82
2021/04/15 09:37:34;;;;;;;3.75;2.25;;;20.10;17.00;;;;;;4986232;28;20053;-82
2021/04/15 09:40:05;;;;;;;6.80;3.13;;;20.10;17.30;;;;;;4986149;28;20081;-82
2021/04/15 09:42:45;;;;;;;4.85;2.85;;;20.10;17.80;;;;;;4985753;28;20514;-82
2021/04/15 09:45:26;;;;;;;4.95;3.40;;;21.20;18.90;;;;;;4989600;28;20080;-82
2021/04/15 09:48:12;;;;;;;4.07;2.78;;;20.40;32.20;;;;;;4985652;28;20046;-82
2021/04/15 09:50:57;;;;;;;8.73;2.30;;;20.40;22.90;;;;;;4975122;28;20480;-81
2021/04/15 09:54:00;;;;;;;4.35;2.13;;;20.40;16.20;;;;;;4984287;28;20498;-82
2021/04/15 09:57:00;;;;;;;3.20;2.00;;;20.60;16.90;;;;;;4985469;28;20042;-83
2021/04/15 09:59:56;;;;;;;4.15;2.47;;;21.10;14.20;;;;;;4982478;28;20034;-81
2021/04/15 10:02:35;;;;;;;9.13;2.70;;;21.20;15.10;;;;;;4984548;28;20069;-83
2021/04/15 10:05:06;;;;;;;11.07;2.30;;;21.40;15.10;;;;;;4988699;28;20073;-81
2021/04/15 10:07:52;;;;;;;8.43;2.72;;;21.70;15.20;;;;;;4982777;28;20126;-80
2021/04/15 10:10:48;;;;;;;3.65;2.65;;;21.60;31.00;;;;;;4976156;28;20022;-82
2021/04/15 10:13:32;;;;;;;6.10;1.95;;;21.50;22.40;;;;;;4983912;28;20034;-83
2021/04/15 10:16:11;;;;;;;5.60;2.45;;;21.30;29.20;;;;;;4986741;28;20035;-82
2021/04/15 10:18:59;;;;;;;6.18;2.88;;;21.20;14.60;;;;;;4988162;28;20034;-82
2021/04/15 10:21:48;;;;;;;3.33;1.77;;;21.50;29.30;;;;;;4974083;28;20022;-82
2021/04/15 10:24:14;;;;;;;5.47;2.80;;;;;;;;;;4972421;28;20172;-83
2021/04/15 10:27:14;;;;;;;3.60;2.38;;;22.00;14.30;;;;;;4985299;28;20550;-82
2021/04/15 10:29:55;;;;;;;4.50;2.75;;;21.80;13.50;;;;;;4978323;28;20679;-82
2021/04/15 10:32:51;;;;;;;4.60;2.83;;;22.30;29.60;;;;;;4983745;28;20121;-83
2021/04/15 10:35:38;;;;;;;3.28;2.03;;;21.50;13.40;;;;;;4987292;28;20080;-81
2021/04/15 10:38:09;;;;;;;1.95;1.42;;;21.00;22.30;;;;;;4981119;28;20038;-81
2021/04/15 10:41:03;;;;;;;2.95;2.17;;;21.20;14.50;;;;;;4981455;28;20084;-81
2021/04/15 10:43:50;;;;;;;2.25;1.65;;;21.20;29.50;;;;;;4998546;28;20125;-81
2021/04/15 10:46:54;;;;;;;4.03;2.08;;;21.00;13.30;;;;;;4982460;28;20381;-82
2021/04/15 10:49:36;;;;;;;5.93;2.88;;;20.70;27.30;;;;;;4959892;28;20054;-83
2021/04/15 10:52:02;;;;;;;3.03;2.05;;;;;;;;;;4964126;28;20043;-82
2021/04/15 10:54:40;;;;;;;3.85;2.03;;;20.30;13.40;;;;;;4965388;28;20108;-81
2021/04/15 10:57:33;;;;;;;2.67;1.85;;;19.80;19.30;;;;;;4966202;28;20129;-82
2021/04/15 11:00:28;;;;;;;3.97;2.33;;;19.20;14.40;;;;;;4963074;28;20214;-82
2021/04/15 11:03:14;;;;;;;3.33;2.17;;;19.20;15.10;;;;;;4951562;28;20066;-82
2021/04/15 11:05:42;;;;;;;5.45;2.30;;;19.00;15.90;;;;;;4970968;28;20069;-82
2021/04/15 11:08:17;;;;;;;4.15;2.65;;;18.70;16.60;;;;;;4965678;28;20049;-81
2021/04/15 11:10:43;;;;;;;5.03;2.70;;;;;;;;;;4965552;28;20031;-81
2021/04/15 11:13:11;;;;;;;4.38;2.97;;;17.60;16.70;;;;;;4967978;28;20043;-82
2021/04/15 11:15:53;;;;;;;4.75;3.28;;;17.20;17.30;;;;;;4967423;28;20042;-83
2021/04/15 11:18:38;;;;;;;20.00;2.50;;;16.60;14.80;;;;;;4962576;28;20039;-82
2021/04/15 11:21:22;;;;;;;5.18;2.40;;;16.50;16.90;;;;;;4968124;28;20121;-81
2021/04/15 11:23:50;;;;;;;9.30;2.70;;;16.50;17.00;;;;;;4964323;28;20035;-82
2021/04/15 11:26:26;;;;;;;3.85;2.25;;;16.70;24.70;;;;;;4962528;28;20042;-82
2021/04/15 11:28:55;;;;;;;3.05;2.35;;;16.70;16.10;;;;;;4981599;28;20426;-82
2021/04/15 11:31:38;;;;;;;3.10;2.03;;;16.70;15.20;;;;;;4984786;28;20548;-82
2021/04/15 11:34:19;;;;;;;3.38;2.38;;;16.70;15.40;;;;;;4989534;28;20034;-82
2021/04/15 11:37:12;;;;;;;3.28;1.90;;;16.70;15.20;;;;;;4975984;28;20117;-82
2021/04/15 11:39:38;;;;;;;3.13;2.00;;;;;;;;;;4975277;28;20042;-81
2021/04/15 11:42:14;;;;;;;2.05;1.70;;;16.50;17.00;;;;;;4989245;28;20045;-82
2021/04/15 11:44:53;;;;;;;2.63;2.05;;;16.60;16.50;;;;;;4991120;28;20856;-82
2021/04/15 11:47:25;;;;;;;2.50;1.75;;;16.60;16.20;;;;;;4983479;28;20026;-82
2021/04/15 11:49:53;;;;;;;2.63;1.88;;;16.50;15.10;;;;;;4988415;28;20026;-81
2021/04/15 11:52:26;;;;;;;2.90;2.22;;;16.40;15.90;;;;;;4987850;28;20026;-81
2021/04/15 11:54:52;;;;;;;3.53;1.95;;;;;;;;;;4988900;28;20427;-82
2021/04/15 11:57:39;;;;;;;3.88;2.42;;;16.40;15.50;;;;;;4986833;28;20046;-82
2021/04/15 12:00:08;;;;;;;;;;;16.40;16.20;;;;;;4983396;28;20015;-80
2021/04/15 12:02:34;;;;;;;2.50;1.80;;;;;;;;;;4985532;28;19909;-82
2021/04/15 12:05:32;;;;;;;2.92;2.10;;;16.00;19.50;;;;;;4986557;28;20045;-81
2021/04/15 12:08:07;;;;;;;3.80;2.22;;;16.30;30.30;;;;;;4988736;28;20042;-81
2021/04/15 12:10:38;;;;;;;3.88;1.80;;;16.30;34.20;;;;;;4984211;28;20031;-82
2021/04/15 12:13:10;;;;;;;3.88;2.50;;;16.10;16.20;;;;;;4979386;28;20105;-81
2021/04/15 12:15:51;;;;;;;5.30;2.60;;;15.90;24.20;;;;;;4974236;28;20133;-82
2021/04/15 12:18:16;;;;;;;3.65;1.80;;;;;;;;;;4990385;28;20076;-81
2021/04/15 12:20:42;;;;;;;3.55;2.00;;;;;;;;;;4989828;28;20030;-81
2021/04/15 12:23:37;;;;;;;6.95;2.60;;;15.80;17.60;;;;;;4985623;28;20117;-83
2021/04/15 12:26:09;;;;;;;4.28;2.15;;;15.80;17.30;;;;;;4980762;28;20117;-81
2021/04/15 12:28:35;;;;;;;3.17;2.00;;;;;;;;;;4978682;28;20030;-80
2021/04/15 12:31:14;;;;;;;5.78;1.88;;;15.70;17.00;;;;;;4975549;28;20517;-80
2021/04/15 12:33:53;;;;;;;3.83;1.92;;;15.70;16.60;;;;;;4987070;28;20035;-81
2021/04/15 12:36:29;;;;;;;5.32;2.17;;;15.70;18.90;;;;;;4974560;28;20034;-83
2021/04/15 12:38:58;;;;;;;2.38;1.70;;;15.80;17.30;;;;;;4985876;28;20092;-83
2021/04/15 12:41:26;;;;;;;4.32;2.00;;;15.60;14.70;;;;;;4977588;28;20030;-82
2021/04/15 12:44:08;;;;;;;7.45;1.80;;;15.70;15.30;;;;;;4982688;28;20506;-81
2021/04/15 12:46:34;;;;;;;2.78;2.13;;;15.80;16.50;;;;;;4990012;28;20038;-81
2021/04/15 12:49:07;;;;;;;3.60;2.38;;;16.00;17.90;;;;;;5000397;28;20035;-81
2021/04/15 12:51:37;;;;;;;3.13;1.90;;;15.80;18.20;;;;;;4989701;28;20038;-81
2021/04/15 12:54:20;;;;;;;3.28;2.13;;;15.80;16.90;;;;;;4973957;28;20047;-82
2021/04/15 12:56:50;;;;;;;2.38;1.50;;;15.50;16.00;;;;;;4971317;28;20143;-81
2021/04/15 12:59:21;;;;;;;2.95;1.52;;;15.50;17.10;;;;;;4981210;28;20057;-82
2021/04/15 13:01:47;;;;;;;2.83;1.85;;;;;;;;;;4984935;28;20030;-81
2021/04/15 13:04:22;;;;;;;2.53;2.30;;;15.00;16.90;;;;;;4986424;28;20023;-81
2021/04/15 13:07:00;;;;;;;5.03;2.28;;;15.20;35.70;;;;;;4977876;28;20590;-80
2021/04/15 13:09:31;;;;;;;3.90;2.10;;;15.10;16.60;;;;;;4974166;28;20049;-81
2021/04/15 13:11:58;;;;;;;2.03;1.55;;;14.80;15.30;;;;;;4973834;28;20085;-81
2021/04/15 13:14:41;;;;;;;2.20;1.65;;;14.90;15.80;;;;;;4986214;28;20034;-81
2021/04/15 13:17:10;;;;;;;5.47;1.98;;;14.70;16.80;;;;;;4999541;28;20038;-82
2021/04/15 13:19:52;;;;;;;5.00;2.15;;;14.70;17.90;;;;;;4996930;28;20507;-81
2021/04/15 13:22:18;;;;;;;4.35;2.30;;;;;;;;;;4977046;28;20026;-82
2021/04/15 13:24:47;;;;;;;2.90;2.55;;;;;;;;;;4989926;28;20112;-82
2021/04/15 13:27:35;;;;;;;4.78;2.45;;;14.40;29.10;;;;;;4973393;28;20034;-81
2021/04/15 13:30:19;;;;;;;2.60;1.75;;;14.50;18.90;;;;;;4985719;28;20058;-81
2021/04/15 13:33:16;;;;;;;3.85;1.77;;;14.30;15.40;;;;;;4988653;28;20078;-81
2021/04/15 13:36:15;;;;;;;5.35;2.03;;;14.10;14.50;;;;;;4975179;28;20042;-81
2021/04/15 13:39:09;;;;;;;3.60;2.00;;;13.90;16.00;;;;;;4989301;28;20129;-81
2021/04/15 13:41:55;;;;;;;4.15;2.63;;;;;;;;;;4972642;28;20050;-81
2021/04/15 13:44:56;;;;;;;5.97;2.40;;;13.90;31.20;;;;;;4976863;28;20154;-80
2021/04/15 13:47:50;;;;;;;6.13;3.22;;;14.20;37.20;;;;;;4948222;29;20283;-81
2021/04/15 13:50:18;;;;;;;3.53;1.65;;;14.30;31.80;;;;;;4947373;29;20043;-83
2021/04/15 13:52:44;;;;;;;2.50;1.60;;;;;;;;;;4947114;29;20058;-82
2021/04/15 13:55:28;;;;;;;4.20;2.58;;;;;;;;;;4947638;29;20059;-82
2021/04/15 13:57:55;;;;;;;4.35;2.10;;;14.00;17.70;;;;;;4947610;28;20047;-82
2021/04/15 14:00:42;;;;;;;2.70;1.63;;;14.00;17.60;;;;;;4947197;29;20023;-82
2021/04/15 14:03:30;;;;;;;1.77;1.67;;;13.60;18.30;;;;;;4946973;29;20082;-84
2021/04/15 14:06:10;;;;;;;6.68;2.45;;;13.90;37.60;;;;;;4944973;29;20043;-82